Terminal Aerodrome Forecast
Issued by NWS

Current Version | Previous Version | Text Only | Print | Product List | Glossary On
Versions: 1 2 3 4 5 6 7 8 9 10 11 12 13 14 15 16 17 18 19 20 21 22
000 FTUS42 KRAH 271720 TAFINT TAF KINT 271720Z 2718/2818 21011G18KT P6SM SCT045 FM272200 18007KT P6SM VCSH BKN045 TEMPO 2722/2802 23020G32KT 3SM TSRA BKN030CB FM280600 21005KT P6SM BKN005=

USA.gov is the U.S. government's official web portal to all federal, state and local government web resources and services.